createdAt,value
2022-11-07T00:02:17.722Z,6.23
2022-11-07T00:04:46.097Z,6.25
2022-11-07T00:07:14.469Z,6.26
2022-11-07T00:09:43.059Z,6.26
2022-11-07T00:12:11.348Z,6.25
2022-11-07T00:14:40.022Z,6.24
2022-11-07T00:17:09.470Z,6.23
2022-11-07T00:19:37.904Z,6.25
2022-11-07T00:22:06.499Z,6.27
2022-11-07T00:24:35.137Z,6.27
2022-11-07T00:27:03.773Z,6.26
2022-11-07T00:29:32.152Z,6.26
2022-11-07T00:32:00.602Z,6.26
2022-11-07T00:34:29.197Z,6.26
2022-11-07T00:36:57.686Z,6.27
2022-11-07T00:39:26.205Z,6.28
2022-11-07T00:41:54.873Z,6.28
2022-11-07T00:44:23.231Z,6.31
2022-11-07T00:46:51.805Z,6.33
2022-11-07T00:49:20.215Z,6.35
2022-11-07T00:51:48.882Z,6.36
2022-11-07T00:54:17.353Z,6.37
2022-11-07T00:56:45.728Z,6.37
2022-11-07T00:59:14.738Z,6.38
2022-11-07T01:01:43.399Z,6.38
2022-11-07T01:04:32.673Z,6.37
2022-11-07T01:07:02.178Z,6.36
2022-11-07T01:09:30.453Z,6.34
2022-11-07T01:11:59.244Z,6.35
2022-11-07T01:14:27.724Z,6.37
2022-11-07T01:16:56.100Z,6.39
2022-11-07T01:19:24.789Z,6.39
2022-11-07T01:21:53.348Z,6.40
2022-11-07T01:24:21.872Z,6.40
2022-11-07T01:26:52.175Z,6.39
2022-11-07T01:29:20.904Z,6.38
2022-11-07T01:31:49.225Z,6.38
2022-11-07T01:34:18.198Z,6.38
2022-11-07T01:36:46.699Z,6.37
2022-11-07T01:39:15.146Z,6.37
2022-11-07T01:41:43.982Z,6.36
2022-11-07T01:44:12.562Z,6.35
2022-11-07T01:46:43.531Z,6.33
2022-11-07T01:49:17.922Z,6.32
2022-11-07T01:51:52.178Z,6.31
2022-11-07T01:54:24.959Z,6.32
2022-11-07T01:56:57.242Z,6.32
2022-11-07T01:59:29.781Z,6.31
2022-11-07T02:01:59.161Z,6.31
2022-11-07T02:04:31.341Z,6.27
2022-11-07T02:07:08.570Z,6.25
2022-11-07T02:09:37.112Z,6.25
2022-11-07T02:12:06.498Z,6.24
2022-11-07T02:14:34.642Z,6.26
2022-11-07T02:17:03.263Z,6.29
2022-11-07T02:19:34.704Z,6.31
2022-11-07T02:22:13.503Z,6.33
2022-11-07T02:24:42.220Z,6.33
2022-11-07T02:27:17.731Z,6.33
2022-11-07T02:29:49.532Z,6.34
2022-11-07T02:32:17.903Z,6.38
2022-11-07T02:34:46.135Z,6.38
2022-11-07T02:37:24.264Z,6.38
2022-11-07T02:39:53.391Z,6.35
2022-11-07T02:42:22.488Z,6.31
2022-11-07T02:44:52.954Z,6.30
2022-11-07T02:47:21.379Z,6.28
2022-11-07T02:49:49.745Z,6.27
2022-11-07T02:52:18.035Z,6.26
2022-11-07T02:54:46.515Z,6.26
2022-11-07T02:57:15.064Z,6.26
2022-11-07T02:59:43.680Z,6.26
2022-11-07T03:02:11.952Z,6.25
2022-11-07T03:04:43.960Z,6.25
2022-11-07T03:07:15.060Z,6.26
2022-11-07T03:09:43.233Z,6.27
2022-11-07T03:12:11.656Z,6.27
2022-11-07T03:14:39.968Z,6.28
2022-11-07T03:17:09.064Z,6.29
2022-11-07T03:19:37.363Z,6.29
2022-11-07T03:22:05.734Z,6.26
2022-11-07T03:24:34.387Z,6.24
2022-11-07T03:27:02.576Z,6.23
2022-11-07T03:29:30.874Z,6.24
2022-11-07T03:31:59.460Z,6.22
2022-11-07T03:34:27.632Z,6.18
2022-11-07T03:36:56.009Z,6.16
2022-11-07T03:39:26.126Z,6.15
2022-11-07T03:41:54.610Z,6.13
2022-11-07T03:44:23.130Z,6.10
2022-11-07T03:46:51.462Z,6.06
2022-11-07T03:49:19.644Z,6.04
2022-11-07T03:51:48.022Z,6.04
2022-11-07T03:54:16.432Z,6.01
2022-11-07T03:56:44.634Z,6.00
2022-11-07T03:59:12.847Z,5.96
2022-11-07T04:01:41.430Z,5.91
2022-11-07T04:04:09.809Z,5.90
2022-11-07T04:06:38.067Z,5.86
2022-11-07T04:09:06.562Z,5.82
2022-11-07T04:11:53.479Z,5.79
2022-11-07T04:14:40.802Z,5.73
2022-11-07T04:17:20.457Z,5.66
2022-11-07T04:19:51.334Z,5.65
2022-11-07T04:22:19.513Z,5.64
2022-11-07T04:24:48.308Z,5.61
2022-11-07T04:27:37.713Z,5.58
2022-11-07T04:30:23.959Z,5.56
2022-11-07T04:32:58.431Z,5.57
2022-11-07T04:35:30.870Z,5.59
2022-11-07T04:38:00.543Z,5.60
2022-11-07T04:40:29.879Z,5.60
2022-11-07T04:42:58.706Z,5.60
2022-11-07T04:45:26.938Z,5.60
2022-11-07T04:47:55.459Z,5.61
2022-11-07T04:50:23.856Z,5.63
2022-11-07T04:52:52.421Z,5.62
2022-11-07T04:55:25.073Z,5.63
2022-11-07T04:57:53.580Z,5.63
2022-11-07T05:00:22.355Z,5.63
2022-11-07T05:02:51.690Z,5.61
2022-11-07T05:05:20.476Z,5.59
2022-11-07T05:07:48.950Z,5.56
2022-11-07T05:10:26.547Z,5.59
2022-11-07T05:12:56.136Z,5.61
2022-11-07T05:15:24.515Z,5.61
2022-11-07T05:17:53.797Z,5.61
2022-11-07T05:20:22.192Z,5.61
2022-11-07T05:23:09.487Z,5.61
2022-11-07T05:25:39.048Z,5.58
2022-11-07T05:28:07.501Z,5.55
2022-11-07T05:30:38.775Z,5.51
2022-11-07T05:33:08.973Z,5.48
2022-11-07T05:35:37.250Z,5.47
2022-11-07T05:38:06.032Z,5.45
2022-11-07T05:40:39.470Z,5.42
2022-11-07T05:43:10.267Z,5.41
2022-11-07T05:45:39.153Z,5.41
2022-11-07T05:48:13.682Z,5.39
2022-11-07T05:50:42.162Z,5.38
2022-11-07T05:53:10.707Z,5.40
2022-11-07T05:55:39.739Z,5.40
2022-11-07T05:58:12.515Z,5.38
2022-11-07T06:00:41.404Z,5.34
2022-11-07T06:03:10.532Z,5.33
2022-11-07T06:05:39.391Z,5.32
2022-11-07T06:08:10.851Z,5.31
2022-11-07T06:10:41.194Z,5.30
2022-11-07T06:13:13.476Z,5.28
2022-11-07T06:15:44.119Z,5.25
2022-11-07T06:18:18.274Z,5.24
2022-11-07T06:20:47.379Z,5.25
2022-11-07T06:23:16.399Z,5.25
2022-11-07T06:25:44.977Z,5.26
2022-11-07T06:28:15.050Z,5.26
2022-11-07T06:30:44.220Z,5.25
2022-11-07T06:33:16.776Z,5.28
2022-11-07T06:35:46.040Z,5.31
2022-11-07T06:38:15.624Z,5.33
2022-11-07T06:40:44.575Z,5.32
2022-11-07T06:43:20.009Z,5.34
2022-11-07T06:45:48.787Z,5.41
2022-11-07T06:48:17.361Z,5.44
2022-11-07T06:50:45.513Z,5.52
2022-11-07T06:53:14.476Z,5.59
2022-11-07T06:55:43.460Z,5.62
2022-11-07T06:58:11.647Z,5.69
2022-11-07T07:00:40.048Z,5.75
2022-11-07T07:03:08.801Z,5.75
2022-11-07T07:05:37.638Z,5.71
2022-11-07T07:08:08.055Z,5.69
2022-11-07T07:10:44.715Z,5.68
2022-11-07T07:13:14.767Z,5.66
2022-11-07T07:15:51.484Z,5.65
2022-11-07T07:18:20.734Z,5.69
2022-11-07T07:20:50.613Z,5.68
2022-11-07T07:23:20.938Z,5.70
2022-11-07T07:25:49.777Z,5.69
2022-11-07T07:28:18.078Z,5.68
2022-11-07T07:30:51.662Z,5.72
2022-11-07T07:33:21.265Z,5.74
2022-11-07T07:35:49.514Z,5.76
2022-11-07T07:38:18.313Z,5.80
2022-11-07T07:40:47.029Z,5.80
2022-11-07T07:43:15.984Z,5.81
2022-11-07T07:45:44.619Z,5.80
2022-11-07T07:48:12.940Z,5.77
2022-11-07T07:50:41.426Z,5.75
2022-11-07T07:53:10.002Z,5.74
2022-11-07T07:55:38.622Z,5.79
2022-11-07T07:58:06.866Z,5.84
2022-11-07T08:00:35.888Z,5.89
2022-11-07T08:03:10.413Z,5.90
2022-11-07T08:05:39.680Z,5.92
2022-11-07T08:08:08.881Z,6.00
2022-11-07T08:10:42.403Z,6.07
2022-11-07T08:13:11.483Z,6.09
2022-11-07T08:15:40.064Z,6.06
2022-11-07T08:18:08.290Z,6.05
2022-11-07T08:20:36.699Z,6.05
2022-11-07T08:23:14.628Z,6.09
2022-11-07T08:25:52.699Z,6.10
2022-11-07T08:28:23.713Z,6.10
2022-11-07T08:31:18.093Z,6.14
2022-11-07T08:33:46.516Z,6.17
2022-11-07T08:36:15.209Z,6.18
2022-11-07T08:38:43.521Z,6.21
2022-11-07T08:41:12.020Z,6.24
2022-11-07T08:43:40.636Z,6.29
2022-11-07T08:46:09.026Z,6.32
2022-11-07T08:48:37.512Z,6.39
2022-11-07T08:51:06.194Z,6.42
2022-11-07T08:53:34.571Z,6.43
2022-11-07T08:56:04.541Z,6.53
2022-11-07T08:58:34.003Z,6.58
2022-11-07T09:01:06.025Z,6.66
2022-11-07T09:03:45.969Z,6.70
2022-11-07T09:06:16.272Z,6.75
2022-11-07T09:08:45.117Z,6.87
2022-11-07T09:11:16.050Z,7.00
2022-11-07T09:13:44.986Z,7.12
2022-11-07T09:16:13.315Z,7.16
2022-11-07T09:18:41.478Z,7.23
2022-11-07T09:21:09.702Z,7.31
2022-11-07T09:23:37.988Z,7.36
2022-11-07T09:26:07.346Z,7.41
2022-11-07T09:28:36.382Z,7.42
2022-11-07T09:31:06.661Z,7.45
2022-11-07T09:33:35.107Z,7.48
2022-11-07T09:36:05.468Z,7.59
2022-11-07T09:38:33.745Z,7.70
2022-11-07T09:41:10.725Z,7.76
2022-11-07T09:43:50.264Z,7.85
2022-11-07T09:46:34.174Z,7.97
2022-11-07T09:49:14.492Z,8.06
2022-11-07T09:51:47.592Z,8.24
2022-11-07T09:54:22.195Z,8.40
2022-11-07T09:56:51.888Z,8.58
2022-11-07T09:59:27.725Z,8.81
2022-11-07T10:01:56.178Z,9.02
2022-11-07T10:04:26.520Z,9.17
2022-11-07T10:07:38.474Z,9.21
2022-11-07T10:10:26.085Z,9.18
2022-11-07T10:13:17.369Z,9.30
2022-11-07T10:15:54.394Z,9.57
2022-11-07T10:18:41.340Z,9.83
2022-11-07T10:21:39.566Z,10.14
2022-11-07T10:24:29.237Z,10.44
2022-11-07T10:26:58.486Z,10.73
2022-11-07T10:29:44.116Z,11.02
2022-11-07T10:32:17.022Z,11.32
2022-11-07T10:34:57.565Z,11.59
2022-11-07T10:37:26.047Z,11.79
2022-11-07T10:39:54.527Z,11.92
2022-11-07T10:42:30.909Z,12.15
2022-11-07T10:44:59.905Z,12.41
2022-11-07T10:47:28.266Z,12.70
2022-11-07T10:50:02.779Z,12.95
2022-11-07T10:52:31.088Z,13.17
2022-11-07T10:55:17.074Z,13.46
2022-11-07T10:57:51.085Z,13.60
2022-11-07T11:00:24.534Z,13.66
2022-11-07T11:02:54.125Z,13.66
2022-11-07T11:05:40.672Z,13.82
2022-11-07T11:08:18.313Z,14.11
2022-11-07T11:10:48.385Z,14.15
2022-11-07T11:13:25.740Z,13.98
2022-11-07T11:16:00.017Z,13.86
2022-11-07T11:18:31.237Z,13.89
2022-11-07T11:21:06.833Z,13.92
2022-11-07T11:23:37.630Z,13.80
2022-11-07T11:26:09.231Z,13.72
2022-11-07T11:28:48.709Z,13.54
2022-11-07T11:31:32.754Z,13.37
2022-11-07T11:34:19.445Z,13.12
2022-11-07T11:36:57.062Z,12.83
2022-11-07T11:39:37.614Z,12.60
2022-11-07T11:42:12.041Z,12.30
2022-11-07T11:44:45.853Z,12.09
2022-11-07T11:47:34.544Z,12.02
2022-11-07T11:50:03.359Z,12.08
2022-11-07T11:52:32.282Z,12.07
2022-11-07T11:55:01.699Z,12.01
2022-11-07T11:57:46.041Z,11.98
2022-11-07T12:00:22.950Z,12.36
2022-11-07T12:03:16.051Z,13.91
2022-11-07T12:05:53.669Z,16.21
2022-11-07T12:08:50.512Z,18.41
2022-11-07T12:11:25.627Z,20.51
2022-11-07T12:14:21.266Z,22.27
2022-11-07T12:17:29.181Z,23.81
2022-11-07T12:20:15.944Z,24.65
2022-11-07T12:22:53.912Z,25.72
2022-11-07T12:25:26.966Z,25.91
2022-11-07T12:28:14.260Z,26.34
2022-11-07T12:30:48.483Z,26.35
2022-11-07T12:33:38.363Z,26.84
2022-11-07T12:36:37.680Z,26.25
2022-11-07T12:39:42.124Z,25.48
2022-11-07T12:42:21.054Z,24.75
2022-11-07T12:44:52.119Z,23.45
2022-11-07T12:47:37.562Z,22.60
2022-11-07T12:50:30.826Z,21.96
2022-11-07T12:53:37.108Z,21.10
2022-11-07T12:56:13.050Z,20.08
2022-11-07T12:58:44.904Z,19.60
2022-11-07T13:01:15.576Z,19.22
2022-11-07T13:04:02.676Z,18.58
2022-11-07T13:06:35.303Z,17.80
2022-11-07T13:09:15.900Z,17.18
2022-11-07T13:12:17.563Z,16.55
2022-11-07T13:14:46.500Z,16.14
2022-11-07T13:17:24.238Z,15.85
2022-11-07T13:20:24.369Z,15.53
2022-11-07T13:22:58.568Z,15.18
2022-11-07T13:25:32.223Z,14.77
2022-11-07T13:28:04.491Z,14.42
2022-11-07T13:30:38.280Z,14.00
2022-11-07T13:33:24.456Z,13.59
2022-11-07T13:35:55.715Z,13.11
2022-11-07T13:38:26.234Z,12.77
2022-11-07T13:41:04.144Z,12.52
2022-11-07T13:43:38.299Z,12.29
2022-11-07T13:46:11.742Z,12.14
2022-11-07T13:48:51.896Z,11.94
2022-11-07T13:51:34.198Z,11.75
2022-11-07T13:54:11.593Z,11.53
2022-11-07T13:56:45.962Z,11.32
2022-11-07T13:59:36.935Z,11.16
2022-11-07T14:02:06.168Z,11.03
2022-11-07T14:04:40.622Z,10.89
2022-11-07T14:07:26.367Z,10.81
2022-11-07T14:09:58.946Z,10.81
2022-11-07T14:12:28.922Z,10.69
2022-11-07T14:14:59.157Z,10.60
2022-11-07T14:17:36.572Z,10.53
2022-11-07T14:20:19.786Z,10.49
2022-11-07T14:22:52.151Z,10.41
2022-11-07T14:25:32.848Z,10.36
2022-11-07T14:28:02.090Z,10.30
2022-11-07T14:30:31.835Z,10.31
2022-11-07T14:33:02.561Z,10.29
2022-11-07T14:35:35.404Z,10.25
2022-11-07T14:38:12.060Z,10.19
2022-11-07T14:40:41.709Z,10.09
2022-11-07T14:43:18.164Z,9.98
2022-11-07T14:46:11.349Z,9.88
2022-11-07T14:48:36.648Z,9.81
2022-11-07T14:51:05.548Z,9.73
2022-11-07T14:53:42.546Z,9.64
2022-11-07T14:56:15.438Z,9.59
2022-11-07T14:58:44.074Z,9.58
2022-11-07T15:01:14.828Z,9.51
2022-11-07T15:03:57.634Z,9.44
2022-11-07T15:06:35.757Z,9.37
2022-11-07T15:09:07.075Z,9.31
2022-11-07T15:11:38.321Z,9.28
2022-11-07T15:14:22.387Z,9.26
2022-11-07T15:16:51.981Z,9.24
2022-11-07T15:19:23.025Z,9.23
2022-11-07T15:22:01.348Z,9.23
2022-11-07T15:24:42.169Z,9.18
2022-11-07T15:27:13.659Z,9.10
2022-11-07T15:29:53.701Z,9.04
2022-11-07T15:32:24.867Z,8.97
2022-11-07T15:35:23.319Z,8.92
2022-11-07T15:37:56.722Z,8.90
2022-11-07T15:40:26.758Z,8.86
2022-11-07T15:42:55.422Z,8.85
2022-11-07T15:45:24.288Z,8.87
2022-11-07T15:47:52.795Z,8.89
2022-11-07T15:50:27.197Z,8.91
2022-11-07T15:52:55.503Z,8.94
2022-11-07T15:55:24.481Z,8.96
2022-11-07T15:57:54.703Z,8.94
2022-11-07T16:00:25.383Z,8.95
2022-11-07T16:02:54.254Z,8.93
2022-11-07T16:05:22.718Z,8.91
2022-11-07T16:07:51.014Z,8.93
2022-11-07T16:10:25.289Z,8.89
2022-11-07T16:12:54.303Z,8.90
2022-11-07T16:15:25.237Z,8.89
2022-11-07T16:17:53.432Z,8.92
2022-11-07T16:20:23.505Z,8.95
2022-11-07T16:22:52.248Z,8.93
2022-11-07T16:25:24.694Z,8.92
2022-11-07T16:27:54.798Z,8.95
2022-11-07T16:30:23.154Z,8.96
2022-11-07T16:32:51.457Z,8.96
2022-11-07T16:35:20.142Z,8.97
2022-11-07T16:37:48.831Z,8.98
2022-11-07T16:40:19.674Z,8.98
2022-11-07T16:42:48.252Z,8.97
2022-11-07T16:45:20.599Z,8.95
2022-11-07T16:47:48.920Z,8.97
2022-11-07T16:50:17.599Z,8.99
2022-11-07T16:52:45.789Z,8.94
2022-11-07T16:55:16.212Z,8.89
2022-11-07T16:57:44.964Z,8.86
2022-11-07T17:00:19.338Z,8.86
2022-11-07T17:02:48.288Z,8.90
2022-11-07T17:05:16.915Z,8.94
2022-11-07T17:07:45.294Z,8.96
2022-11-07T17:10:17.010Z,8.98
2022-11-07T17:12:45.209Z,9.00
2022-11-07T17:15:14.257Z,9.00
2022-11-07T17:17:42.544Z,9.01
2022-11-07T17:20:50.023Z,9.02
2022-11-07T17:23:10.971Z,9.06
2022-11-07T17:25:40.184Z,9.08
2022-11-07T17:28:09.743Z,9.10
2022-11-07T17:30:38.533Z,9.13
2022-11-07T17:33:06.848Z,9.17
2022-11-07T17:35:36.516Z,9.22
2022-11-07T17:38:05.608Z,9.28
2022-11-07T17:40:34.738Z,9.32
2022-11-07T17:43:03.177Z,9.36
2022-11-07T17:45:31.469Z,9.41
2022-11-07T17:48:00.051Z,9.42
2022-11-07T17:50:28.295Z,9.41
2022-11-07T17:52:56.723Z,9.43
2022-11-07T17:55:28.866Z,9.50
2022-11-07T17:57:57.312Z,9.55
2022-11-07T18:00:27.485Z,9.52
2022-11-07T18:02:55.761Z,9.49
2022-11-07T18:05:31.747Z,9.48
2022-11-07T18:08:01.816Z,9.46
2022-11-07T18:10:30.351Z,9.41
2022-11-07T18:12:59.176Z,9.36
2022-11-07T18:15:27.464Z,9.33
2022-11-07T18:17:56.066Z,9.31
2022-11-07T18:20:24.397Z,9.31
2022-11-07T18:22:52.610Z,9.28
2022-11-07T18:25:21.156Z,9.25
2022-11-07T18:27:49.402Z,9.23
2022-11-07T18:30:17.826Z,9.23
2022-11-07T18:32:46.088Z,9.28
2022-11-07T18:35:16.846Z,9.30
2022-11-07T18:37:45.121Z,9.36
2022-11-07T18:40:14.422Z,9.43
2022-11-07T18:42:44.547Z,9.45
2022-11-07T18:45:13.962Z,9.44
2022-11-07T18:47:42.390Z,9.46
2022-11-07T18:50:11.416Z,9.48
2022-11-07T18:52:39.907Z,9.51
2022-11-07T18:55:09.705Z,9.50
2022-11-07T18:57:41.687Z,9.52
2022-11-07T19:00:13.581Z,9.53
2022-11-07T19:02:42.844Z,9.51
2022-11-07T19:05:11.076Z,9.47
2022-11-07T19:07:43.067Z,9.45
2022-11-07T19:10:12.879Z,9.42
2022-11-07T19:12:41.896Z,9.40
2022-11-07T19:15:10.791Z,9.41
2022-11-07T19:17:40.062Z,9.43
2022-11-07T19:20:09.387Z,9.41
2022-11-07T19:22:37.638Z,9.37
2022-11-07T19:25:06.960Z,9.34
2022-11-07T19:27:35.521Z,9.33
2022-11-07T19:30:06.373Z,9.33
2022-11-07T19:32:35.355Z,9.34
2022-11-07T19:35:07.420Z,9.34
2022-11-07T19:37:37.254Z,9.32
2022-11-07T19:40:06.831Z,9.28
2022-11-07T19:42:35.518Z,9.24
2022-11-07T19:45:04.428Z,9.22
2022-11-07T19:47:33.198Z,9.20
2022-11-07T19:50:01.804Z,9.19
2022-11-07T19:52:30.386Z,9.16
2022-11-07T19:54:59.139Z,9.15
2022-11-07T19:57:27.328Z,9.15
2022-11-07T19:59:55.826Z,9.19
2022-11-07T20:02:32.908Z,9.27
2022-11-07T20:05:01.796Z,9.32
2022-11-07T20:07:30.480Z,9.34
2022-11-07T20:09:59.045Z,9.33
2022-11-07T20:12:27.632Z,9.36
2022-11-07T20:14:56.315Z,9.39
2022-11-07T20:17:24.447Z,9.42
2022-11-07T20:19:52.751Z,9.45
2022-11-07T20:22:21.653Z,9.48
2022-11-07T20:24:50.852Z,9.47
2022-11-07T20:27:19.333Z,9.46
2022-11-07T20:29:48.080Z,9.48
2022-11-07T20:32:17.169Z,9.52
2022-11-07T20:34:48.765Z,9.54
2022-11-07T20:37:21.725Z,9.55
2022-11-07T20:39:50.776Z,9.58
2022-11-07T20:42:18.991Z,9.59
2022-11-07T20:44:50.066Z,9.55
2022-11-07T20:47:18.442Z,9.55
2022-11-07T20:49:46.720Z,9.55
2022-11-07T20:52:15.130Z,9.54
2022-11-07T20:54:43.464Z,9.54
2022-11-07T20:57:11.749Z,9.54
2022-11-07T20:59:42.103Z,9.55
2022-11-07T21:02:11.799Z,9.58
2022-11-07T21:05:03.302Z,9.60
2022-11-07T21:07:28.713Z,9.62
2022-11-07T21:09:57.155Z,9.66
2022-11-07T21:12:25.419Z,9.65
2022-11-07T21:14:54.868Z,9.62
2022-11-07T21:17:23.068Z,9.58
2022-11-07T21:19:51.294Z,9.57
2022-11-07T21:22:19.500Z,9.60
2022-11-07T21:24:47.974Z,9.62
2022-11-07T21:27:16.660Z,9.63
2022-11-07T21:29:45.093Z,9.62
2022-11-07T21:32:13.298Z,9.61
2022-11-07T21:34:42.864Z,9.63
2022-11-07T21:37:11.200Z,9.64
2022-11-07T21:39:39.472Z,9.64
2022-11-07T21:42:07.952Z,9.67
2022-11-07T21:44:36.285Z,9.69
2022-11-07T21:47:04.709Z,9.68
2022-11-07T21:49:33.261Z,9.68
2022-11-07T21:52:01.915Z,9.65
2022-11-07T21:54:30.253Z,9.63
2022-11-07T21:57:00.382Z,9.59
2022-11-07T21:59:29.194Z,9.58
2022-11-07T22:01:57.767Z,9.59
